createdAt,value
2023-10-11T00:02:20.130Z,41.08
2023-10-11T00:05:05.101Z,41.45
2023-10-11T00:07:50.009Z,41.48
2023-10-11T00:10:35.004Z,41.34
2023-10-11T00:13:20.027Z,41.05
2023-10-11T00:16:04.816Z,41.07
2023-10-11T00:18:50.079Z,41.27
2023-10-11T00:21:34.891Z,40.94
2023-10-11T00:24:19.870Z,40.86
2023-10-11T00:27:04.703Z,40.48
2023-10-11T00:29:49.779Z,40.83
2023-10-11T00:32:34.704Z,40.73
2023-10-11T00:35:19.753Z,40.96
2023-10-11T00:38:04.820Z,40.55
2023-10-11T00:40:49.679Z,40.62
2023-10-11T00:43:34.720Z,40.64
2023-10-11T00:46:19.724Z,40.37
2023-10-11T00:49:04.605Z,40.43
2023-10-11T00:51:49.674Z,40.49
2023-10-11T00:54:34.690Z,40.06
2023-10-11T00:57:19.689Z,39.99
2023-10-11T01:00:04.643Z,39.90
2023-10-11T01:02:49.728Z,39.89
2023-10-11T01:05:34.613Z,39.49
2023-10-11T01:08:19.694Z,39.58
2023-10-11T01:11:04.574Z,40.32
2023-10-11T01:13:49.656Z,40.20
2023-10-11T01:16:34.684Z,40.13
2023-10-11T01:19:19.888Z,40.41
2023-10-11T01:22:05.142Z,41.09
2023-10-11T01:24:50.075Z,40.69
2023-10-11T01:27:35.102Z,40.49
2023-10-11T01:30:20.001Z,40.36
2023-10-11T01:33:05.105Z,39.77
2023-10-11T01:35:49.864Z,39.98
2023-10-11T01:38:34.921Z,40.34
2023-10-11T01:41:19.890Z,39.78
2023-10-11T01:44:04.892Z,39.95
2023-10-11T01:46:50.016Z,39.75
2023-10-11T01:49:34.988Z,40.31
2023-10-11T01:52:20.002Z,40.36
2023-10-11T01:55:04.909Z,40.44
2023-10-11T01:57:49.973Z,40.59
2023-10-11T02:00:34.830Z,40.57
2023-10-11T02:03:19.856Z,40.67
2023-10-11T02:06:04.747Z,40.79
2023-10-11T02:08:49.691Z,40.86
2023-10-11T02:11:34.619Z,40.88
2023-10-11T02:14:19.603Z,40.57
2023-10-11T02:17:04.642Z,40.10
2023-10-11T02:19:49.501Z,40.12
2023-10-11T02:22:34.469Z,39.94
2023-10-11T02:25:19.423Z,39.91
2023-10-11T02:28:04.516Z,40.19
2023-10-11T02:30:49.472Z,40.27
2023-10-11T02:33:34.613Z,40.35
2023-10-11T02:36:19.583Z,40.15
2023-10-11T02:39:04.488Z,40.32
2023-10-11T02:41:49.480Z,40.29
2023-10-11T02:44:34.496Z,40.84
2023-10-11T02:47:19.563Z,41.02
2023-10-11T02:50:04.530Z,41.12
2023-10-11T02:52:49.465Z,40.77
2023-10-11T02:55:34.418Z,40.30
2023-10-11T02:58:19.254Z,40.27
2023-10-11T03:01:19.680Z,40.38
2023-10-11T03:04:05.973Z,41.07
2023-10-11T03:06:50.912Z,41.04
2023-10-11T03:09:35.761Z,41.22
2023-10-11T03:12:21.064Z,41.31
2023-10-11T03:15:05.949Z,41.26
2023-10-11T03:17:50.896Z,41.60
2023-10-11T03:20:36.012Z,41.60
2023-10-11T03:23:21.016Z,41.50
2023-10-11T03:26:06.113Z,41.50
2023-10-11T03:28:51.094Z,41.09
2023-10-11T03:31:36.093Z,41.61
2023-10-11T03:34:20.976Z,41.81
2023-10-11T03:37:05.866Z,41.98
2023-10-11T03:39:50.885Z,42.27
2023-10-11T03:42:35.732Z,42.98
2023-10-11T03:45:20.803Z,42.96
2023-10-11T03:48:05.706Z,43.09
2023-10-11T03:50:50.649Z,42.66
2023-10-11T03:53:35.440Z,42.32
2023-10-11T03:56:20.420Z,42.09
2023-10-11T03:59:05.459Z,41.77
2023-10-11T04:01:50.343Z,41.79
2023-10-11T04:04:35.401Z,42.51
2023-10-11T04:07:20.344Z,42.52
2023-10-11T04:10:05.541Z,42.16
2023-10-11T04:12:50.394Z,41.70
2023-10-11T04:15:35.281Z,41.98
2023-10-11T04:18:20.510Z,42.26
2023-10-11T04:21:05.543Z,42.76
2023-10-11T04:23:50.420Z,42.86
2023-10-11T04:26:35.448Z,43.09
2023-10-11T04:29:20.692Z,44.00
2023-10-11T04:32:05.431Z,44.46
2023-10-11T04:34:50.445Z,44.17
2023-10-11T04:37:35.370Z,43.85
2023-10-11T04:40:20.459Z,43.91
2023-10-11T04:43:05.616Z,43.66
2023-10-11T04:45:56.362Z,43.93
2023-10-11T04:48:41.539Z,43.93
2023-10-11T04:51:26.576Z,43.27
2023-10-11T04:54:11.631Z,43.40
2023-10-11T04:56:56.392Z,42.67
2023-10-11T04:59:41.433Z,42.71
2023-10-11T05:02:26.632Z,42.60
2023-10-11T05:05:11.451Z,42.71
2023-10-11T05:07:56.451Z,43.14
2023-10-11T05:10:41.420Z,43.57
2023-10-11T05:13:26.434Z,42.85
2023-10-11T05:16:11.596Z,42.60
2023-10-11T05:18:56.676Z,42.84
2023-10-11T05:21:41.524Z,42.92
2023-10-11T05:24:26.488Z,43.09
2023-10-11T05:27:11.577Z,43.63
2023-10-11T05:29:56.530Z,43.59
2023-10-11T05:32:41.532Z,43.98
2023-10-11T05:35:28.069Z,44.19
2023-10-11T05:38:12.984Z,44.28
2023-10-11T05:40:58.064Z,44.81
2023-10-11T05:43:42.982Z,44.41
2023-10-11T05:46:27.904Z,44.58
2023-10-11T05:49:12.679Z,44.63
2023-10-11T05:51:57.869Z,45.17
2023-10-11T05:54:42.937Z,44.66
2023-10-11T05:57:27.751Z,44.73
2023-10-11T06:00:12.848Z,44.27
2023-10-11T06:02:57.744Z,43.37
2023-10-11T06:05:42.677Z,43.27
2023-10-11T06:08:27.448Z,43.71
2023-10-11T06:11:12.382Z,43.68
2023-10-11T06:13:57.327Z,43.69
2023-10-11T06:16:42.402Z,43.84
2023-10-11T06:19:27.444Z,44.02
2023-10-11T06:22:12.236Z,43.83
2023-10-11T06:24:57.404Z,43.04
2023-10-11T06:27:42.290Z,42.59
2023-10-11T06:30:27.270Z,41.85
2023-10-11T06:33:12.288Z,42.33
2023-10-11T06:35:57.162Z,42.77
2023-10-11T06:38:42.191Z,42.41
2023-10-11T06:41:27.229Z,42.55
2023-10-11T06:44:12.171Z,42.34
2023-10-11T06:46:57.015Z,42.63
2023-10-11T06:49:42.053Z,42.43
2023-10-11T06:52:26.999Z,43.34
2023-10-11T06:55:11.979Z,43.28
2023-10-11T06:57:56.909Z,43.08
2023-10-11T07:00:41.820Z,42.54
2023-10-11T07:03:26.889Z,41.93
2023-10-11T07:06:11.786Z,41.63
2023-10-11T07:08:56.472Z,40.05
2023-10-11T07:11:41.554Z,37.46
2023-10-11T07:14:26.589Z,34.97
2023-10-11T07:17:11.441Z,34.01
2023-10-11T07:19:56.230Z,34.61
2023-10-11T07:22:41.177Z,33.47
2023-10-11T07:25:26.357Z,34.03
2023-10-11T07:28:11.268Z,33.77
2023-10-11T07:30:56.136Z,33.25
2023-10-11T07:33:41.337Z,33.68
2023-10-11T07:36:28.920Z,33.62
2023-10-11T07:39:14.790Z,32.73
2023-10-11T07:41:59.682Z,33.00
2023-10-11T07:44:44.565Z,30.83
2023-10-11T07:47:29.660Z,31.28
2023-10-11T07:50:14.525Z,33.22
2023-10-11T07:52:59.638Z,34.67
2023-10-11T07:55:44.428Z,34.90
2023-10-11T07:58:29.498Z,33.87
2023-10-11T08:01:14.974Z,33.71
2023-10-11T08:04:00.012Z,34.44
2023-10-11T08:06:44.950Z,35.28
2023-10-11T08:09:30.118Z,35.05
2023-10-11T08:12:15.098Z,34.79
2023-10-11T08:15:00.011Z,34.37
2023-10-11T08:17:44.880Z,34.40
2023-10-11T08:20:29.832Z,33.23
2023-10-11T08:23:14.674Z,34.24
2023-10-11T08:25:59.706Z,33.14
2023-10-11T08:28:44.767Z,33.15
2023-10-11T08:31:29.791Z,32.55
2023-10-11T08:34:14.701Z,32.73
2023-10-11T08:36:59.719Z,32.84
2023-10-11T08:39:44.693Z,33.57
2023-10-11T08:42:29.619Z,33.20
2023-10-11T08:45:14.476Z,35.06
2023-10-11T08:47:59.623Z,33.87
2023-10-11T08:50:44.383Z,32.50
2023-10-11T08:53:29.337Z,32.61
2023-10-11T08:56:14.466Z,31.44
2023-10-11T08:58:59.415Z,31.37
2023-10-11T09:01:44.486Z,32.26
2023-10-11T09:04:29.578Z,33.00
2023-10-11T09:07:14.583Z,33.10
2023-10-11T09:09:59.593Z,32.99
2023-10-11T09:12:44.511Z,32.91
2023-10-11T09:15:29.616Z,33.29
2023-10-11T09:18:14.606Z,32.54
2023-10-11T09:20:59.602Z,32.12
2023-10-11T09:23:44.368Z,31.95
2023-10-11T09:26:40.584Z,32.15
2023-10-11T09:29:26.971Z,31.33
2023-10-11T09:32:12.025Z,31.09
2023-10-11T09:34:56.948Z,32.58
2023-10-11T09:37:42.288Z,32.93
2023-10-11T09:40:26.940Z,32.02
2023-10-11T09:43:11.857Z,31.59
2023-10-11T09:45:56.981Z,30.88
2023-10-11T09:48:41.860Z,30.60
2023-10-11T09:51:26.838Z,30.53
2023-10-11T09:54:12.768Z,30.33
2023-10-11T09:56:57.924Z,29.96
2023-10-11T09:59:42.932Z,30.22
2023-10-11T10:02:28.063Z,30.78
2023-10-11T10:05:13.074Z,30.04
2023-10-11T10:07:58.042Z,30.46
2023-10-11T10:10:43.026Z,30.73
2023-10-11T10:13:28.035Z,30.50
2023-10-11T10:16:13.162Z,30.39
2023-10-11T10:18:58.220Z,29.16
2023-10-11T10:21:43.036Z,29.58
2023-10-11T10:24:28.063Z,29.45
2023-10-11T10:27:13.133Z,30.06
2023-10-11T10:29:58.045Z,30.04
2023-10-11T10:32:42.927Z,29.92
2023-10-11T10:35:27.879Z,29.08
2023-10-11T10:38:12.788Z,29.07
2023-10-11T10:40:57.853Z,29.78
2023-10-11T10:43:42.643Z,29.41
2023-10-11T10:46:27.716Z,29.71
2023-10-11T10:49:12.666Z,29.24
2023-10-11T10:51:57.711Z,29.35
2023-10-11T10:54:42.834Z,29.82
2023-10-11T10:57:27.737Z,28.76
2023-10-11T11:00:12.833Z,29.20
2023-10-11T11:02:57.925Z,29.40
2023-10-11T11:05:43.210Z,29.00
2023-10-11T11:08:28.299Z,28.40
2023-10-11T11:11:12.980Z,28.84
2023-10-11T11:13:58.033Z,28.21
2023-10-11T11:16:43.122Z,28.34
2023-10-11T11:19:28.112Z,27.66
2023-10-11T11:22:13.245Z,27.46
2023-10-11T11:24:58.530Z,26.03
2023-10-11T11:27:43.628Z,25.99
2023-10-11T11:30:28.588Z,25.77
2023-10-11T11:33:13.624Z,26.20
2023-10-11T11:35:58.465Z,27.65
2023-10-11T11:38:45.747Z,27.59
2023-10-11T11:41:30.569Z,27.40
2023-10-11T11:44:15.595Z,26.88
2023-10-11T11:47:00.656Z,28.01
2023-10-11T11:49:45.572Z,27.16
2023-10-11T11:52:30.494Z,27.55
2023-10-11T11:55:15.459Z,26.97
2023-10-11T11:58:00.429Z,26.48
2023-10-11T12:00:45.369Z,25.67
2023-10-11T12:03:30.522Z,26.57
2023-10-11T12:06:18.344Z,25.76
2023-10-11T12:09:03.271Z,27.14
2023-10-11T12:11:48.230Z,26.49
2023-10-11T12:14:36.303Z,26.27
2023-10-11T12:17:21.257Z,26.69
2023-10-11T12:20:06.311Z,26.13
2023-10-11T12:22:51.188Z,25.94
2023-10-11T12:25:36.222Z,27.05
2023-10-11T12:28:21.078Z,27.20
2023-10-11T12:31:06.192Z,26.13
2023-10-11T12:33:51.038Z,25.45
2023-10-11T12:36:36.015Z,25.49
2023-10-11T12:39:21.179Z,26.82
2023-10-11T12:42:05.836Z,25.60
2023-10-11T12:44:50.776Z,27.40
2023-10-11T12:47:35.696Z,28.48
2023-10-11T12:50:20.746Z,26.14
2023-10-11T12:53:05.596Z,26.21
2023-10-11T12:55:50.552Z,26.40
2023-10-11T12:58:35.514Z,26.53
2023-10-11T13:01:20.650Z,26.73
2023-10-11T13:04:05.636Z,26.08
2023-10-11T13:06:50.520Z,26.59
2023-10-11T13:09:35.500Z,27.21
2023-10-11T13:12:20.311Z,27.13
2023-10-11T13:15:05.569Z,27.05
2023-10-11T13:17:50.338Z,27.18
2023-10-11T13:20:35.326Z,28.04
2023-10-11T13:23:20.206Z,27.79
2023-10-11T13:26:05.214Z,27.62
2023-10-11T13:28:50.388Z,28.15
2023-10-11T13:31:35.609Z,26.95
2023-10-11T13:34:21.590Z,28.80
2023-10-11T13:37:06.272Z,29.34
2023-10-11T13:39:51.326Z,31.22
2023-10-11T13:42:36.189Z,31.60
2023-10-11T13:45:21.254Z,31.06
2023-10-11T13:48:06.277Z,29.63
2023-10-11T13:50:51.115Z,31.07
2023-10-11T13:53:36.299Z,31.46
2023-10-11T13:56:21.195Z,31.39
2023-10-11T13:59:06.294Z,31.22
2023-10-11T14:01:51.197Z,31.88
2023-10-11T14:04:36.456Z,32.69
2023-10-11T14:07:21.272Z,32.87
2023-10-11T14:10:06.292Z,32.79
2023-10-11T14:12:51.401Z,33.52
2023-10-11T14:15:36.451Z,32.28
2023-10-11T14:18:21.671Z,32.51
2023-10-11T14:21:06.503Z,32.10
2023-10-11T14:23:51.467Z,32.05
2023-10-11T14:26:36.342Z,31.76
2023-10-11T14:29:21.386Z,31.47
2023-10-11T14:32:06.298Z,31.41
2023-10-11T14:34:51.360Z,32.49
2023-10-11T14:37:36.475Z,32.48
2023-10-11T14:40:21.380Z,32.15
2023-10-11T14:43:06.443Z,32.21
2023-10-11T14:45:51.656Z,32.30
2023-10-11T14:48:36.385Z,31.34
2023-10-11T14:51:21.230Z,32.19
2023-10-11T14:54:06.202Z,31.64
2023-10-11T14:56:51.132Z,31.58
2023-10-11T14:59:36.178Z,31.28
2023-10-11T15:02:21.724Z,32.10
2023-10-11T15:05:06.417Z,32.03
2023-10-11T15:07:51.418Z,31.71
2023-10-11T15:10:36.416Z,30.73
2023-10-11T15:13:21.383Z,31.94
2023-10-11T15:16:06.373Z,31.02
2023-10-11T15:18:51.373Z,31.72
2023-10-11T15:21:36.368Z,31.77
2023-10-11T15:24:21.325Z,32.10
2023-10-11T15:27:06.433Z,31.66
2023-10-11T15:29:51.328Z,31.77
2023-10-11T15:32:36.452Z,31.20
2023-10-11T15:35:21.355Z,31.67
2023-10-11T15:38:06.391Z,31.49
2023-10-11T15:40:51.490Z,31.21
2023-10-11T15:43:36.253Z,31.52
2023-10-11T15:46:21.367Z,31.09
2023-10-11T15:49:06.306Z,30.79
2023-10-11T15:51:51.375Z,30.20
2023-10-11T15:54:36.413Z,30.27
2023-10-11T15:57:21.496Z,30.78
2023-10-11T16:00:06.504Z,30.75
2023-10-11T16:02:51.381Z,31.67
2023-10-11T16:05:36.468Z,30.41
2023-10-11T16:08:21.275Z,30.87
2023-10-11T16:11:06.367Z,30.74
2023-10-11T16:13:51.330Z,31.03
2023-10-11T16:16:36.292Z,30.28
2023-10-11T16:19:21.264Z,30.86
2023-10-11T16:22:06.419Z,30.21
2023-10-11T16:24:51.284Z,29.87
2023-10-11T16:27:36.162Z,30.09
2023-10-11T16:30:21.276Z,30.23
2023-10-11T16:33:06.208Z,30.18
2023-10-11T16:35:53.028Z,30.12
2023-10-11T16:38:38.673Z,29.93
2023-10-11T16:41:23.684Z,29.78
2023-10-11T16:44:08.592Z,29.52
2023-10-11T16:46:53.598Z,29.16
2023-10-11T16:49:38.835Z,29.16
2023-10-11T16:52:23.823Z,29.17
2023-10-11T16:55:08.822Z,29.00
2023-10-11T16:57:53.826Z,28.35
2023-10-11T17:00:38.853Z,28.46
2023-10-11T17:03:23.991Z,28.38
2023-10-11T17:06:08.879Z,28.38
2023-10-11T17:08:53.874Z,28.21
2023-10-11T17:11:39.052Z,28.40
2023-10-11T17:14:24.149Z,28.18
2023-10-11T17:17:09.101Z,28.88
2023-10-11T17:19:54.107Z,29.01
2023-10-11T17:22:39.072Z,28.98
2023-10-11T17:25:24.003Z,28.46
2023-10-11T17:28:09.038Z,28.35
2023-10-11T17:30:53.958Z,28.52
2023-10-11T17:33:39.077Z,28.25
2023-10-11T17:36:24.085Z,28.24
2023-10-11T17:39:08.983Z,27.90
2023-10-11T17:41:53.926Z,28.33
2023-10-11T17:44:39.222Z,28.69
2023-10-11T17:47:24.017Z,28.72
2023-10-11T17:50:09.048Z,28.94
2023-10-11T17:52:53.840Z,28.38
2023-10-11T17:55:38.733Z,28.14
2023-10-11T17:58:23.766Z,28.59
2023-10-11T18:01:08.802Z,29.21
2023-10-11T18:03:53.714Z,29.24
2023-10-11T18:06:38.673Z,29.66
2023-10-11T18:09:23.738Z,29.97
2023-10-11T18:12:08.530Z,29.94
2023-10-11T18:14:53.505Z,30.30
2023-10-11T18:17:38.830Z,30.03
2023-10-11T18:20:23.678Z,30.20
2023-10-11T18:23:09.789Z,29.66
2023-10-11T18:25:55.071Z,29.71
2023-10-11T18:28:40.188Z,30.25
2023-10-11T18:31:25.239Z,30.40
2023-10-11T18:34:10.126Z,30.41
2023-10-11T18:36:55.225Z,30.49
2023-10-11T18:39:40.242Z,30.60
2023-10-11T18:42:25.222Z,30.63
2023-10-11T18:45:10.242Z,31.56
2023-10-11T18:47:55.280Z,31.34
2023-10-11T18:50:40.247Z,32.30
2023-10-11T18:53:25.197Z,32.32
2023-10-11T18:56:10.206Z,32.02
2023-10-11T18:58:55.166Z,32.45
2023-10-11T19:01:40.316Z,32.73
2023-10-11T19:04:25.339Z,32.57
2023-10-11T19:07:10.275Z,31.89
2023-10-11T19:09:55.065Z,32.08
2023-10-11T19:12:40.113Z,29.52
2023-10-11T19:15:24.932Z,28.43
2023-10-11T19:18:09.960Z,27.82
2023-10-11T19:20:54.877Z,28.12
2023-10-11T19:23:39.811Z,30.39
2023-10-11T19:26:24.829Z,29.92
2023-10-11T19:29:09.842Z,30.23
2023-10-11T19:31:54.850Z,30.70
2023-10-11T19:34:39.708Z,31.16
2023-10-11T19:37:24.817Z,30.85
2023-10-11T19:40:09.687Z,31.24
2023-10-11T19:42:55.045Z,31.60
2023-10-11T19:45:40.238Z,31.58
2023-10-11T19:48:25.074Z,31.70
2023-10-11T19:51:09.918Z,31.49
2023-10-11T19:53:54.880Z,30.60
2023-10-11T19:56:39.880Z,30.92
2023-10-11T19:59:24.837Z,31.29
2023-10-11T20:02:09.959Z,31.45
2023-10-11T20:04:55.005Z,31.40
2023-10-11T20:07:39.856Z,31.32
2023-10-11T20:10:24.728Z,31.47
2023-10-11T20:13:09.719Z,31.71
2023-10-11T20:15:54.911Z,31.75
2023-10-11T20:18:39.775Z,31.85
2023-10-11T20:21:24.676Z,31.61
2023-10-11T20:24:09.554Z,31.56
2023-10-11T20:26:54.635Z,32.05
2023-10-11T20:29:39.740Z,32.37
2023-10-11T20:32:24.686Z,32.27
2023-10-11T20:35:09.810Z,32.14
2023-10-11T20:37:54.660Z,32.40
2023-10-11T20:40:39.710Z,32.40
2023-10-11T20:43:24.571Z,33.02
2023-10-11T20:46:09.682Z,32.66
2023-10-11T20:48:54.595Z,33.44
2023-10-11T20:51:39.548Z,33.70
2023-10-11T20:54:24.657Z,33.49
2023-10-11T20:57:09.547Z,33.28
2023-10-11T20:59:54.499Z,33.82
2023-10-11T21:02:39.348Z,33.70
2023-10-11T21:05:24.195Z,34.62
2023-10-11T21:08:09.172Z,33.64
2023-10-11T21:10:54.221Z,34.52
2023-10-11T21:13:39.224Z,34.64
2023-10-11T21:16:24.191Z,34.19
2023-10-11T21:19:09.286Z,34.21
2023-10-11T21:21:54.122Z,33.78
2023-10-11T21:24:39.241Z,33.60
2023-10-11T21:27:24.295Z,34.43
2023-10-11T21:30:09.295Z,34.80
2023-10-11T21:32:54.108Z,34.26
2023-10-11T21:35:39.017Z,34.07
2023-10-11T21:38:24.004Z,34.37
2023-10-11T21:41:08.886Z,34.16
2023-10-11T21:43:54.057Z,34.54
2023-10-11T21:46:39.033Z,35.43
2023-10-11T21:49:23.969Z,35.98
2023-10-11T21:52:08.973Z,35.07
2023-10-11T21:54:53.973Z,34.30
2023-10-11T21:57:38.895Z,33.87
2023-10-11T22:00:23.959Z,33.51
2023-10-11T22:03:08.965Z,33.77
2023-10-11T22:05:53.850Z,34.45
2023-10-11T22:08:39.837Z,33.82
2023-10-11T22:11:24.825Z,33.81
2023-10-11T22:14:09.872Z,34.67
2023-10-11T22:16:54.800Z,33.93
2023-10-11T22:19:39.863Z,33.77
2023-10-11T22:22:24.903Z,33.55
2023-10-11T22:25:09.772Z,34.09
2023-10-11T22:27:54.911Z,34.25
2023-10-11T22:30:39.894Z,32.47
2023-10-11T22:33:24.825Z,33.54
2023-10-11T22:36:09.680Z,32.48
2023-10-11T22:38:54.713Z,33.02
2023-10-11T22:41:39.809Z,33.39
2023-10-11T22:44:24.709Z,33.11
2023-10-11T22:47:09.734Z,33.33
2023-10-11T22:49:54.678Z,33.83
2023-10-11T22:52:39.702Z,32.98
2023-10-11T22:55:24.665Z,33.32
2023-10-11T22:58:09.723Z,33.10
2023-10-11T23:00:54.525Z,33.37
2023-10-11T23:03:39.979Z,32.68
2023-10-11T23:06:24.768Z,31.92
2023-10-11T23:09:09.743Z,31.33
2023-10-11T23:11:54.841Z,31.19
2023-10-11T23:14:39.773Z,30.52
2023-10-11T23:17:24.951Z,30.15
2023-10-11T23:20:09.899Z,30.34
2023-10-11T23:22:54.848Z,30.62
2023-10-11T23:25:39.823Z,30.88
2023-10-11T23:28:24.934Z,32.04
2023-10-11T23:31:10.649Z,32.24
2023-10-11T23:33:55.965Z,32.12
2023-10-11T23:36:41.043Z,32.84
2023-10-11T23:39:26.095Z,32.77
2023-10-11T23:42:11.052Z,33.15
2023-10-11T23:44:56.022Z,33.72
2023-10-11T23:47:40.951Z,33.53
2023-10-11T23:50:25.989Z,33.81
2023-10-11T23:53:10.819Z,33.23
2023-10-11T23:55:55.969Z,33.01
2023-10-11T23:58:40.807Z,31.86
